Time;durP1;ratioP1;P1;durP2;ratioP2;P2;SDS_P1;SDS_P2;PMS_P1;PMS_P2;Temp;Humidity;BMP_temperature;BMP_pressure;BME280_temperature;BME280_humidity;BME280_pressure;Samples;Min_cycle;Max_cycle;Signal;HPM_P1;HPM_P2
2021/01/14 00:00:15;;;;;;;;;;;9.90;99.90;;;;;;5121144;28;20313;-52
2021/01/14 00:02:41;;;;;;;;;;;9.90;99.90;;;;;;5120646;28;19911;-52
2021/01/14 00:05:07;;;;;;;;;;;10.00;99.90;;;;;;5120669;28;19904;-51
2021/01/14 00:07:32;;;;;;;;;;;10.00;99.90;;;;;;5120361;28;19908;-51
2021/01/14 00:09:58;;;;;;;;;;;10.00;99.90;;;;;;5120972;28;19911;-52
2021/01/14 00:12:24;;;;;;;;;;;10.00;99.90;;;;;;5120515;28;19908;-52
2021/01/14 00:14:49;;;;;;;;;;;10.00;99.90;;;;;;5120678;28;19922;-51
2021/01/14 00:17:15;;;;;;;;;;;10.00;99.90;;;;;;5120610;28;20310;-52
2021/01/14 00:19:40;;;;;;;;;;;10.00;99.90;;;;;;5120667;28;19952;-54
2021/01/14 00:22:06;;;;;;;;;;;9.90;99.90;;;;;;5120013;28;19914;-53
2021/01/14 00:24:31;;;;;;;;;;;10.00;99.90;;;;;;5116694;28;19915;-52
2021/01/14 00:26:57;;;;;;;;;;;10.00;99.90;;;;;;5100134;28;19949;-52
2021/01/14 00:29:22;;;;;;;;;;;10.00;99.90;;;;;;5099805;28;19938;-52
2021/01/14 00:31:48;;;;;;;;;;;10.00;99.90;;;;;;5100158;28;20371;-52
2021/01/14 00:34:14;;;;;;;;;;;10.00;99.90;;;;;;5099180;28;19969;-52
2021/01/14 00:39:25;;;;;;;;;;;9.90;99.90;;;;;;5099490;28;19911;-52
2021/01/14 00:41:52;;;;;;;;;;;9.90;99.90;;;;;;5099696;28;19927;-53
2021/01/14 00:44:18;;;;;;;;;;;9.90;99.90;;;;;;5099366;28;19904;-51
2021/01/14 00:46:43;;;;;;;;;;;9.90;99.90;;;;;;5099584;28;19912;-51
2021/01/14 00:49:09;;;;;;;;;;;9.90;99.90;;;;;;5098978;28;19915;-51
2021/01/14 00:51:35;;;;;;;;;;;9.90;99.90;;;;;;5099756;28;19904;-51
2021/01/14 00:54:01;;;;;;;;;;;9.90;99.90;;;;;;5106441;28;19903;-52
2021/01/14 00:56:30;;;;;;;;;;;9.90;99.90;;;;;;5119886;28;19904;-51
2021/01/14 00:58:56;;;;;;;;;;;9.90;99.90;;;;;;5101166;28;19915;-52
2021/01/14 01:01:21;;;;;;;;;;;9.90;99.90;;;;;;5119995;28;19908;-51
2021/01/14 01:03:47;;;;;;;;;;;9.90;99.90;;;;;;5119281;28;19969;-51
2021/01/14 01:06:12;;;;;;;;;;;9.90;99.90;;;;;;5119334;28;19908;-51
2021/01/14 01:08:38;;;;;;;;;;;9.80;99.90;;;;;;5119332;28;19919;-54
2021/01/14 01:11:03;;;;;;;;;;;9.90;99.90;;;;;;5119145;28;19911;-51
2021/01/14 01:13:29;;;;;;;;;;;9.80;99.90;;;;;;5119309;28;19910;-53
2021/01/14 01:15:54;;;;;;;;;;;9.90;99.90;;;;;;5119233;28;19908;-51
2021/01/14 01:18:20;;;;;;;;;;;9.80;99.90;;;;;;5101121;28;20210;-52
2021/01/14 01:20:46;;;;;;;;;;;9.80;99.90;;;;;;5119319;28;19918;-52
2021/01/14 01:23:12;;;;;;;;;;;9.80;99.90;;;;;;5119328;28;19927;-52
2021/01/14 01:25:37;;;;;;;;;;;9.80;99.90;;;;;;5106087;28;19915;-52
2021/01/14 01:28:03;;;;;;;;;;;9.80;99.90;;;;;;5063927;28;20295;-52
2021/01/14 01:30:28;;;;;;;;;;;9.80;99.90;;;;;;5098774;28;19961;-52
2021/01/14 01:32:54;;;;;;;;;;;9.80;99.90;;;;;;5098486;28;19961;-52
2021/01/14 01:35:19;;;;;;;;;;;9.80;99.90;;;;;;5098516;28;19908;-52
2021/01/14 01:37:45;;;;;;;;;;;9.80;99.90;;;;;;5098996;28;19908;-52
2021/01/14 01:40:13;;;;;;;;;;;9.70;99.90;;;;;;5098547;28;19908;-52
2021/01/14 01:42:38;;;;;;;;;;;9.70;99.90;;;;;;5068395;28;19917;-52
2021/01/14 01:45:04;;;;;;;;;;;9.70;99.90;;;;;;5056215;28;19975;-52
2021/01/14 01:47:36;;;;;;;;;;;9.80;99.90;;;;;;5056892;28;19908;-52
2021/01/14 01:50:04;;;;;;;;;;;9.70;99.90;;;;;;5057055;28;20046;-53
2021/01/14 01:52:31;;;;;;;;;;;9.80;99.90;;;;;;5057341;28;20356;-52
2021/01/14 01:54:57;;;;;;;;;;;9.70;99.90;;;;;;5057171;28;19911;-53
2021/01/14 01:57:22;;;;;;;;;;;9.70;99.90;;;;;;5057225;28;20298;-52
2021/01/14 01:59:48;;;;;;;;;;;9.70;99.90;;;;;;5056722;28;19999;-52
2021/01/14 02:02:23;;;;;;;;;;;9.70;99.90;;;;;;5057052;28;19908;-54
2021/01/14 02:04:49;;;;;;;;;;;9.80;99.90;;;;;;5068374;28;20227;-53
2021/01/14 02:07:35;;;;;;;;;;;9.70;99.90;;;;;;5076691;28;19957;-52
2021/01/14 02:10:04;;;;;;;;;;;9.70;99.90;;;;;;5045168;28;19915;-53
2021/01/14 02:12:35;;;;;;;;;;;9.70;99.90;;;;;;5076570;28;19958;-52
2021/01/14 02:15:01;;;;;;;;;;;9.80;99.90;;;;;;5076913;28;20058;-52
2021/01/14 02:17:27;;;;;;;;;;;9.80;99.90;;;;;;5075238;28;20303;-52
2021/01/14 02:19:54;;;;;;;;;;;9.80;99.90;;;;;;5076863;28;19961;-53
2021/01/14 02:22:23;;;;;;;;;;;9.80;99.90;;;;;;5076513;28;20227;-52
2021/01/14 02:25:01;;;;;;;;;;;9.80;99.90;;;;;;5075919;28;19905;-53
2021/01/14 02:27:27;;;;;;;;;;;9.80;99.90;;;;;;5076970;28;19949;-53
2021/01/14 02:29:55;;;;;;;;;;;9.80;99.90;;;;;;5076114;28;20261;-53
2021/01/14 02:32:20;;;;;;;;;;;9.80;99.90;;;;;;5076183;28;20279;-53
2021/01/14 02:34:48;;;;;;;;;;;9.90;99.90;;;;;;5075229;28;19915;-52
2021/01/14 02:37:14;;;;;;;;;;;9.80;99.90;;;;;;5076556;28;19916;-52
2021/01/14 02:39:39;;;;;;;;;;;9.80;99.90;;;;;;5076249;28;19908;-52
2021/01/14 02:42:05;;;;;;;;;;;9.80;99.90;;;;;;5066145;28;747186;-52
2021/01/14 02:44:30;;;;;;;;;;;9.90;99.90;;;;;;5077173;28;19962;-52
2021/01/14 02:46:57;;;;;;;;;;;9.90;99.90;;;;;;5077475;28;19915;-52
2021/01/14 02:49:26;;;;;;;;;;;9.90;99.90;;;;;;5077113;28;19936;-52
2021/01/14 02:51:54;;;;;;;;;;;9.90;99.90;;;;;;5077468;28;19943;-53
2021/01/14 02:54:20;;;;;;;;;;;9.90;99.90;;;;;;5076975;28;19905;-53
2021/01/14 02:56:49;;;;;;;;;;;9.90;99.90;;;;;;5076983;28;20018;-52
2021/01/14 02:59:15;;;;;;;;;;;9.90;99.90;;;;;;5076768;28;19951;-53
2021/01/14 03:01:40;;;;;;;;;;;9.90;99.90;;;;;;5077223;28;19954;-51
2021/01/14 03:04:06;;;;;;;;;;;9.90;99.90;;;;;;5076718;28;20333;-52
2021/01/14 03:06:31;;;;;;;;;;;9.90;99.90;;;;;;5077005;28;20281;-53
2021/01/14 03:08:57;;;;;;;;;;;10.00;99.90;;;;;;5076506;28;20003;-52
2021/01/14 03:11:26;;;;;;;;;;;10.00;99.90;;;;;;5076712;28;20299;-52
2021/01/14 03:13:52;;;;;;;;;;;9.90;99.90;;;;;;5076312;28;19911;-52
2021/01/14 03:16:18;;;;;;;;;;;9.90;99.90;;;;;;5076553;28;20290;-52
2021/01/14 03:18:44;;;;;;;;;;;9.90;99.90;;;;;;5076589;28;19912;-51
2021/01/14 03:21:09;;;;;;;;;;;9.90;99.90;;;;;;5076490;28;19947;-52
2021/01/14 03:23:35;;;;;;;;;;;9.90;99.90;;;;;;5076639;28;19916;-52
2021/01/14 03:26:00;;;;;;;;;;;9.90;99.90;;;;;;5076440;28;20204;-53
2021/01/14 03:28:26;;;;;;;;;;;9.90;99.90;;;;;;5076541;28;19916;-53
2021/01/14 03:30:53;;;;;;;;;;;9.90;99.90;;;;;;5080795;28;19915;-53
2021/01/14 03:33:18;;;;;;;;;;;10.00;99.90;;;;;;5096477;28;20081;-54
2021/01/14 03:35:44;;;;;;;;;;;9.90;99.90;;;;;;5096756;28;19950;-54
2021/01/14 03:38:09;;;;;;;;;;;10.00;99.90;;;;;;5097227;28;20291;-53
2021/01/14 03:40:35;;;;;;;;;;;9.90;99.90;;;;;;5094684;28;19904;-53
2021/01/14 03:43:00;;;;;;;;;;;9.90;99.90;;;;;;5113965;28;19926;-53
2021/01/14 03:45:26;;;;;;;;;;;9.90;99.90;;;;;;5116881;28;20006;-52
2021/01/14 03:47:51;;;;;;;;;;;10.00;99.90;;;;;;5099002;28;19915;-51
2021/01/14 03:50:17;;;;;;;;;;;9.90;99.90;;;;;;5116779;28;19962;-51
2021/01/14 03:52:42;;;;;;;;;;;10.00;99.90;;;;;;5117478;28;19916;-51
2021/01/14 03:55:08;;;;;;;;;;;9.90;99.90;;;;;;5116881;28;20006;-50
2021/01/14 03:57:34;;;;;;;;;;;10.00;99.90;;;;;;5117346;28;19912;-50
2021/01/14 03:59:59;;;;;;;;;;;10.00;99.90;;;;;;5117160;28;19940;-51
2021/01/14 04:02:25;;;;;;;;;;;9.90;99.90;;;;;;5117172;28;19994;-51
2021/01/14 04:04:50;;;;;;;;;;;9.90;99.90;;;;;;5116795;28;19952;-51
2021/01/14 04:07:16;;;;;;;;;;;9.90;99.90;;;;;;5117237;28;19911;-50
2021/01/14 04:09:42;;;;;;;;;;;9.90;99.90;;;;;;5118884;28;20249;-51
2021/01/14 04:12:07;;;;;;;;;;;9.90;99.90;;;;;;5120608;28;19943;-51
2021/01/14 04:14:33;;;;;;;;;;;9.90;99.90;;;;;;5120688;28;19957;-51
2021/01/14 04:16:59;;;;;;;;;;;9.90;99.90;;;;;;5120688;28;19915;-51
2021/01/14 04:19:24;;;;;;;;;;;9.90;99.90;;;;;;5120385;28;19904;-51
2021/01/14 04:21:50;;;;;;;;;;;10.00;99.90;;;;;;5120645;28;19903;-51
2021/01/14 04:24:15;;;;;;;;;;;10.00;99.90;;;;;;5120298;28;19907;-51
2021/01/14 04:26:41;;;;;;;;;;;10.00;99.90;;;;;;5120747;28;19908;-51
2021/01/14 04:29:07;;;;;;;;;;;10.00;99.90;;;;;;5120370;28;20220;-51
2021/01/14 04:31:33;;;;;;;;;;;10.00;99.90;;;;;;5120467;28;19904;-51
2021/01/14 04:33:58;;;;;;;;;;;10.00;99.90;;;;;;5120264;28;19907;-52
2021/01/14 04:36:24;;;;;;;;;;;10.00;99.90;;;;;;5120389;28;19914;-52
2021/01/14 04:38:49;;;;;;;;;;;10.00;99.90;;;;;;5120025;28;19998;-52
2021/01/14 04:41:16;;;;;;;;;;;10.00;99.90;;;;;;5119302;28;19908;-52
2021/01/14 04:43:42;;;;;;;;;;;10.00;99.90;;;;;;5120189;28;19951;-52
2021/01/14 04:46:08;;;;;;;;;;;10.00;99.90;;;;;;5120191;28;19919;-52
2021/01/14 04:48:35;;;;;;;;;;;10.00;99.90;;;;;;5119883;28;19911;-53
2021/01/14 04:51:07;;;;;;;;;;;10.00;99.90;;;;;;5120193;28;19918;-52
2021/01/14 04:53:34;;;;;;;;;;;10.00;99.90;;;;;;5119634;28;19904;-52
2021/01/14 04:56:01;;;;;;;;;;;10.00;99.90;;;;;;5120125;28;19915;-52
2021/01/14 04:58:27;;;;;;;;;;;10.00;99.90;;;;;;5119714;28;20218;-52
2021/01/14 05:00:52;;;;;;;;;;;10.00;99.90;;;;;;5119910;28;19908;-52
2021/01/14 05:03:22;;;;;;;;;;;10.00;99.90;;;;;;5119296;28;20294;-52
2021/01/14 05:05:48;;;;;;;;;;;9.90;99.90;;;;;;5119711;28;19912;-52
2021/01/14 05:08:15;;;;;;;;;;;10.00;99.90;;;;;;5119118;28;19911;-52
2021/01/14 05:10:41;;;;;;;;;;;9.90;99.90;;;;;;5119214;28;19903;-53
2021/01/14 05:13:08;;;;;;;;;;;9.90;99.90;;;;;;5119274;28;19911;-54
2021/01/14 05:15:35;;;;;;;;;;;10.00;99.90;;;;;;5119200;28;20002;-54
2021/01/14 05:18:00;;;;;;;;;;;10.00;99.90;;;;;;5118982;28;19908;-55
2021/01/14 05:20:26;;;;;;;;;;;10.00;99.90;;;;;;5119565;28;19957;-55
2021/01/14 05:22:59;;;;;;;;;;;9.90;99.90;;;;;;5118951;28;19954;-54
2021/01/14 05:25:25;;;;;;;;;;;10.00;99.90;;;;;;5108027;28;19948;-54
2021/01/14 05:27:50;;;;;;;;;;;9.90;99.90;;;;;;5098530;28;20222;-56
2021/01/14 05:30:16;;;;;;;;;;;10.00;99.90;;;;;;5098957;28;19912;-56
2021/01/14 05:32:46;;;;;;;;;;;10.00;99.90;;;;;;5098510;28;19904;-56
2021/01/14 05:35:15;;;;;;;;;;;10.00;99.90;;;;;;5099008;28;19904;-56
2021/01/14 05:37:42;;;;;;;;;;;10.00;99.90;;;;;;5098285;28;19991;-55
2021/01/14 05:40:11;;;;;;;;;;;10.00;99.90;;;;;;5098622;28;20295;-55
2021/01/14 05:42:38;;;;;;;;;;;10.00;99.90;;;;;;5098445;28;19965;-57
2021/01/14 05:45:05;;;;;;;;;;;10.00;99.90;;;;;;5098490;28;20006;-56
2021/01/14 05:47:30;;;;;;;;;;;10.00;99.90;;;;;;5098455;28;19954;-56
2021/01/14 05:49:56;;;;;;;;;;;10.00;99.90;;;;;;5098609;28;19951;-56
2021/01/14 05:52:22;;;;;;;;;;;10.00;99.90;;;;;;5098065;28;19994;-56
2021/01/14 05:54:53;;;;;;;;;;;10.00;99.90;;;;;;5097848;28;19950;-56
2021/01/14 05:57:18;;;;;;;;;;;10.00;99.90;;;;;;5097564;28;19926;-57
2021/01/14 05:59:53;;;;;;;;;;;10.00;99.90;;;;;;5098298;28;20318;-57
2021/01/14 06:02:26;;;;;;;;;;;10.00;99.90;;;;;;5098232;28;20319;-56
2021/01/14 06:04:51;;;;;;;;;;;9.90;99.90;;;;;;5102491;28;19914;-56
2021/01/14 06:07:17;;;;;;;;;;;10.00;99.90;;;;;;5118159;28;20002;-56
2021/01/14 06:09:45;;;;;;;;;;;10.00;99.90;;;;;;5118280;28;20009;-56
2021/01/14 06:12:11;;;;;;;;;;;9.90;99.90;;;;;;5117997;28;19911;-56
2021/01/14 06:14:38;;;;;;;;;;;9.90;99.90;;;;;;5117945;28;20209;-56
2021/01/14 06:17:06;;;;;;;;;;;9.90;99.90;;;;;;5117808;28;19904;-56
2021/01/14 06:19:32;;;;;;;;;;;9.90;99.90;;;;;;5118204;28;19908;-56
2021/01/14 06:21:58;;;;;;;;;;;9.90;99.90;;;;;;5118123;28;19965;-56
2021/01/14 06:24:26;;;;;;;;;;;10.00;99.90;;;;;;5118381;28;20217;-57
2021/01/14 06:26:53;;;;;;;;;;;9.90;99.90;;;;;;5118425;28;19994;-55
2021/01/14 06:29:22;;;;;;;;;;;9.90;99.90;;;;;;5117912;28;20210;-55
2021/01/14 06:31:48;;;;;;;;;;;9.90;99.90;;;;;;5118107;28;19949;-55
2021/01/14 06:34:15;;;;;;;;;;;9.90;99.90;;;;;;5117628;28;19907;-55
2021/01/14 06:36:41;;;;;;;;;;;9.90;99.90;;;;;;5118191;28;19995;-55
2021/01/14 06:39:10;;;;;;;;;;;9.80;99.90;;;;;;5117632;28;19915;-55
2021/01/14 06:41:37;;;;;;;;;;;9.80;99.90;;;;;;5117956;28;19927;-55
2021/01/14 06:44:05;;;;;;;;;;;9.80;99.90;;;;;;5117861;28;19903;-55
2021/01/14 06:46:32;;;;;;;;;;;9.70;99.90;;;;;;5117792;28;19907;-55
2021/01/14 06:48:58;;;;;;;;;;;9.80;99.90;;;;;;5117741;28;19976;-55
2021/01/14 06:51:24;;;;;;;;;;;9.80;99.90;;;;;;5117708;28;20293;-55
2021/01/14 06:53:55;;;;;;;;;;;9.70;99.90;;;;;;5117659;28;19904;-55
2021/01/14 06:56:22;;;;;;;;;;;9.80;99.90;;;;;;5117852;28;19956;-55
2021/01/14 06:58:50;;;;;;;;;;;9.70;99.90;;;;;;5099100;28;20272;-55
2021/01/14 07:01:17;;;;;;;;;;;9.80;99.90;;;;;;5118275;28;19904;-55
2021/01/14 07:03:52;;;;;;;;;;;9.70;99.90;;;;;;5117584;28;20000;-55
2021/01/14 07:06:21;;;;;;;;;;;9.80;99.90;;;;;;5117607;28;19903;-56
2021/01/14 07:08:53;;;;;;;;;;;9.80;99.90;;;;;;5117400;28;19968;-55
2021/01/14 07:11:19;;;;;;;;;;;9.80;99.90;;;;;;5117772;28;20248;-56
2021/01/14 07:13:46;;;;;;;;;;;9.80;99.90;;;;;;5117338;28;20294;-55
2021/01/14 07:16:13;;;;;;;;;;;9.80;99.90;;;;;;5117387;28;19903;-55
2021/01/14 07:18:39;;;;;;;;;;;9.80;99.90;;;;;;5117433;28;19911;-55
2021/01/14 07:21:23;;;;;;;;;;;9.80;99.90;;;;;;5117440;28;19916;-56
2021/01/14 07:24:07;;;;;;;;;;;9.80;99.90;;;;;;5117575;28;20268;-55
2021/01/14 07:26:33;;;;;;;;;;;9.80;99.90;;;;;;5097004;28;19949;-56
2021/01/14 07:29:00;;;;;;;;;;;9.90;99.90;;;;;;5096829;28;19908;-55
2021/01/14 07:31:26;;;;;;;;;;;9.90;99.90;;;;;;5097017;28;19904;-55
2021/01/14 07:33:52;;;;;;;;;;;9.90;99.90;;;;;;5114311;28;20282;-55
2021/01/14 07:36:19;;;;;;;;;;;9.90;99.90;;;;;;5099224;28;20240;-55
2021/01/14 07:38:46;;;;;;;;;;;9.90;99.90;;;;;;5117342;28;19990;-55
2021/01/14 07:41:11;;;;;;;;;;;9.90;99.90;;;;;;5117620;28;19904;-56
2021/01/14 07:43:37;;;;;;;;;;;9.90;99.90;;;;;;5117757;28;19920;-55
2021/01/14 07:46:13;;;;;;;;;;;9.90;99.90;;;;;;5121313;28;19954;-55
2021/01/14 07:48:39;;;;;;;;;;;9.90;99.90;;;;;;5121108;28;19912;-55
2021/01/14 07:51:04;;;;;;;;;;;10.00;99.90;;;;;;5121246;28;20053;-55
2021/01/14 07:53:30;;;;;;;;;;;9.90;99.90;;;;;;5120779;28;19908;-55
2021/01/14 07:55:55;;;;;;;;;;;9.90;99.90;;;;;;5121269;28;19947;-56
2021/01/14 07:58:23;;;;;;;;;;;9.90;99.90;;;;;;5120768;28;19904;-55
2021/01/14 08:00:57;;;;;;;;;;;9.90;99.90;;;;;;5121277;28;19903;-55
2021/01/14 08:03:27;;;;;;;;;;;9.90;99.90;;;;;;5120628;28;19903;-55
2021/01/14 08:05:56;;;;;;;;;;;9.90;99.90;;;;;;5120477;28;20362;-56
2021/01/14 08:08:28;;;;;;;;;;;9.90;99.90;;;;;;5120357;28;19908;-55
2021/01/14 08:11:06;;;;;;;;;;;9.90;99.90;;;;;;5120594;28;19908;-55
2021/01/14 08:13:31;;;;;;;;;;;10.00;99.90;;;;;;5120159;28;19911;-55
2021/01/14 08:15:57;;;;;;;;;;;10.00;99.90;;;;;;5120610;28;19952;-55
2021/01/14 08:18:23;;;;;;;;;;;10.00;99.90;;;;;;5120271;28;19912;-55
2021/01/14 08:21:07;;;;;;;;;;;10.00;99.90;;;;;;5120023;28;20002;-56
2021/01/14 08:23:40;;;;;;;;;;;10.00;99.90;;;;;;5119831;28;19904;-56
2021/01/14 08:26:11;;;;;;;;;;;10.00;99.90;;;;;;5103112;28;19999;-56
2021/01/14 08:28:36;;;;;;;;;;;10.10;99.90;;;;;;5099766;28;20024;-57
2021/01/14 08:31:02;;;;;;;;;;;10.10;99.90;;;;;;5099538;28;19921;-56
2021/01/14 08:33:27;;;;;;;;;;;10.10;99.90;;;;;;5100044;28;20287;-56
2021/01/14 08:36:02;;;;;;;;;;;10.20;99.90;;;;;;5099337;28;19908;-56
2021/01/14 08:38:28;;;;;;;;;;;10.20;99.90;;;;;;5099571;28;19919;-55
2021/01/14 08:40:54;;;;;;;;;;;10.20;99.90;;;;;;5099552;28;20229;-56
2021/01/14 08:43:20;;;;;;;;;;;10.30;99.90;;;;;;5099237;28;19920;-56
2021/01/14 08:45:47;;;;;;;;;;;10.30;99.90;;;;;;5099294;28;19915;-55
2021/01/14 08:48:19;;;;;;;;;;;10.30;99.90;;;;;;5081311;28;19904;-55
2021/01/14 08:50:48;;;;;;;;;;;10.30;99.90;;;;;;5098675;28;19961;-55
2021/01/14 08:53:19;;;;;;;;;;;10.30;99.90;;;;;;5099482;28;19943;-54
2021/01/14 08:55:52;;;;;;;;;;;10.20;99.90;;;;;;5117879;28;19986;-55
2021/01/14 08:58:21;;;;;;;;;;;10.20;99.90;;;;;;5119671;28;19907;-55
2021/01/14 09:00:49;;;;;;;;;;;10.20;99.90;;;;;;5119247;28;20336;-55
2021/01/14 09:03:15;;;;;;;;;;;10.20;99.90;;;;;;5119965;28;19904;-57
2021/01/14 09:05:44;;;;;;;;;;;10.20;99.90;;;;;;5100926;28;20228;-57
2021/01/14 09:08:12;;;;;;;;;;;10.20;99.90;;;;;;5119947;28;19908;-56
2021/01/14 09:10:38;;;;;;;;;;;10.20;99.90;;;;;;5119417;28;20294;-57
2021/01/14 09:13:11;;;;;;;;;;;10.10;99.90;;;;;;5119636;28;19919;-56
2021/01/14 09:15:37;;;;;;;;;;;10.10;99.90;;;;;;5119003;28;19972;-56
2021/01/14 09:18:02;;;;;;;;;;;10.10;99.90;;;;;;5119469;28;20294;-57
2021/01/14 09:20:29;;;;;;;;;;;10.20;99.90;;;;;;5116771;28;19911;-57
2021/01/14 09:22:58;;;;;;;;;;;10.10;99.90;;;;;;5113443;28;19912;-57
2021/01/14 09:25:36;;;;;;;;;;;10.10;99.90;;;;;;5108020;28;19980;-57
2021/01/14 09:28:10;;;;;;;;;;;10.10;99.90;;;;;;5111046;28;19951;-57
2021/01/14 09:30:36;;;;;;;;;;;10.10;99.90;;;;;;5080301;28;20230;-56
2021/01/14 09:33:01;;;;;;;;;;;10.10;99.90;;;;;;5117729;27;19907;-56
2021/01/14 09:35:27;;;;;;;;;;;10.20;99.90;;;;;;5116017;28;20256;-56
2021/01/14 09:37:56;;;;;;;;;;;10.00;99.90;;;;;;5108786;28;20298;-56
2021/01/14 09:40:21;;;;;;;;;;;10.00;99.90;;;;;;5109557;28;19912;-57
2021/01/14 09:42:50;;;;;;;;;;;9.80;99.90;;;;;;5115460;28;19926;-58
2021/01/14 09:45:16;;;;;;;;;;;9.90;99.90;;;;;;5115049;28;19919;-59
2021/01/14 09:47:45;;;;;;;;;;;9.90;99.90;;;;;;5119156;28;19911;-58
2021/01/14 09:50:11;;;;;;;;;;;9.90;99.90;;;;;;5106144;28;20327;-60
2021/01/14 09:52:37;;;;;;;;;;;9.90;99.90;;;;;;5103837;28;19908;-59
2021/01/14 09:55:03;;;;;;;;;;;10.00;99.90;;;;;;5098023;28;19908;-59
2021/01/14 09:57:30;;;;;;;;;;;10.00;99.90;;;;;;5097239;28;19912;-59
2021/01/14 09:59:57;;;;;;;;;;;9.90;99.90;;;;;;5097913;28;19908;-59
2021/01/14 10:02:26;;;;;;;;;;;9.90;99.90;;;;;;5098106;28;19958;-59
2021/01/14 10:04:54;;;;;;;;;;;9.90;99.90;;;;;;5080852;28;19915;-59
2021/01/14 10:07:20;;;;;;;;;;;9.90;99.90;;;;;;5097797;28;19904;-59
2021/01/14 10:09:48;;;;;;;;;;;9.90;99.90;;;;;;5097672;28;20384;-59
2021/01/14 10:12:17;;;;;;;;;;;9.90;99.90;;;;;;5097578;28;19944;-60
2021/01/14 10:14:43;;;;;;;;;;;10.00;99.90;;;;;;5097825;28;19939;-59
2021/01/14 10:17:09;;;;;;;;;;;10.10;99.90;;;;;;5097504;28;19942;-60
2021/01/14 10:19:46;;;;;;;;;;;10.00;99.90;;;;;;5096490;28;19908;-61
2021/01/14 10:22:11;;;;;;;;;;;10.10;99.90;;;;;;5094844;28;20034;-60
2021/01/14 10:24:37;;;;;;;;;;;10.10;99.90;;;;;;5097283;28;20298;-60
2021/01/14 10:27:19;;;;;;;;;;;10.00;99.90;;;;;;5097232;28;19904;-60
2021/01/14 10:29:45;;;;;;;;;;;10.00;99.90;;;;;;5079160;28;19923;-60
2021/01/14 10:32:11;;;;;;;;;;;10.10;99.90;;;;;;5097549;28;19908;-60
2021/01/14 10:34:44;;;;;;;;;;;10.10;99.90;;;;;;5097135;28;19911;-59
2021/01/14 10:37:23;;;;;;;;;;;10.10;99.90;;;;;;5097328;28;19905;-59
2021/01/14 10:40:12;;;;;;;;;;;10.10;99.90;;;;;;5078549;28;19904;-59
2021/01/14 10:42:38;;;;;;;;;;;10.10;99.90;;;;;;5086472;28;19958;-59
2021/01/14 10:45:08;;;;;;;;;;;10.10;99.90;;;;;;5096691;28;19904;-59
2021/01/14 10:47:34;;;;;;;;;;;10.00;99.90;;;;;;5097350;28;19915;-59
2021/01/14 10:50:00;;;;;;;;;;;10.10;99.90;;;;;;5096637;28;20002;-59
2021/01/14 10:52:26;;;;;;;;;;;10.10;99.90;;;;;;5097264;28;19946;-59
2021/01/14 10:55:01;;;;;;;;;;;10.10;99.90;;;;;;5097103;28;19943;-59
2021/01/14 10:57:45;;;;;;;;;;;10.10;99.90;;;;;;5097033;28;19904;-59
2021/01/14 11:00:18;;;;;;;;;;;10.10;99.90;;;;;;5078310;28;19904;-59
2021/01/14 11:02:45;;;;;;;;;;;10.20;99.90;;;;;;5097087;28;19969;-58
2021/01/14 11:05:11;;;;;;;;;;;10.10;99.90;;;;;;5096875;28;19911;-58
2021/01/14 11:07:37;;;;;;;;;;;10.10;99.90;;;;;;5096960;28;19915;-60
2021/01/14 11:10:06;;;;;;;;;;;10.00;99.90;;;;;;5096837;28;19912;-58
2021/01/14 11:12:31;;;;;;;;;;;10.10;99.90;;;;;;5097169;28;19912;-59
2021/01/14 11:14:57;;;;;;;;;;;10.20;99.90;;;;;;5097054;28;19904;-59
2021/01/14 11:17:24;;;;;;;;;;;10.30;99.90;;;;;;5097551;28;19908;-58
2021/01/14 11:19:50;;;;;;;;;;;10.20;99.90;;;;;;5103736;28;20310;-59
2021/01/14 11:22:16;;;;;;;;;;;10.30;99.90;;;;;;5120043;28;20001;-59
2021/01/14 11:24:41;;;;;;;;;;;10.30;99.90;;;;;;5095745;28;19967;-59
2021/01/14 11:27:07;;;;;;;;;;;10.30;99.90;;;;;;5099057;28;19915;-58
2021/01/14 11:29:33;;;;;;;;;;;10.30;99.90;;;;;;5080715;28;19916;-59
2021/01/14 11:32:00;;;;;;;;;;;10.30;99.90;;;;;;5112749;28;19908;-59
2021/01/14 11:34:25;;;;;;;;;;;10.30;99.90;;;;;;5118840;28;20301;-59
2021/01/14 11:36:51;;;;;;;;;;;10.40;99.90;;;;;;5101027;28;19990;-59
2021/01/14 11:39:16;;;;;;;;;;;10.50;99.90;;;;;;5119488;28;20318;-59
2021/01/14 11:41:42;;;;;;;;;;;10.50;99.90;;;;;;5119152;28;19911;-59
2021/01/14 11:44:07;;;;;;;;;;;10.50;99.90;;;;;;5119607;28;20306;-58
2021/01/14 11:46:33;;;;;;;;;;;10.40;99.90;;;;;;5119239;28;19908;-57
2021/01/14 11:48:58;;;;;;;;;;;10.50;99.90;;;;;;5118757;28;20294;-58
2021/01/14 11:51:24;;;;;;;;;;;10.50;99.90;;;;;;5119151;28;19957;-58
2021/01/14 11:53:49;;;;;;;;;;;10.60;99.90;;;;;;5118997;28;19941;-58
2021/01/14 11:56:15;;;;;;;;;;;10.60;99.90;;;;;;5118942;28;19910;-58
2021/01/14 11:58:41;;;;;;;;;;;10.60;99.90;;;;;;5119169;28;19931;-58
2021/01/14 12:01:07;;;;;;;;;;;10.60;99.90;;;;;;5118641;28;20301;-58
2021/01/14 12:03:33;;;;;;;;;;;10.60;99.90;;;;;;5118833;28;19908;-58
2021/01/14 12:05:59;;;;;;;;;;;10.60;99.90;;;;;;5118843;28;19914;-58
2021/01/14 12:08:24;;;;;;;;;;;10.60;99.90;;;;;;5118979;28;19907;-58
2021/01/14 12:10:50;;;;;;;;;;;10.70;99.90;;;;;;5117478;28;20225;-58
2021/01/14 12:13:15;;;;;;;;;;;10.70;99.90;;;;;;5118596;28;19919;-58
2021/01/14 12:15:41;;;;;;;;;;;10.70;99.90;;;;;;5118208;28;19908;-59
2021/01/14 12:18:06;;;;;;;;;;;10.70;99.90;;;;;;5100116;28;20648;-58
2021/01/14 12:20:32;;;;;;;;;;;10.70;99.90;;;;;;5118200;28;20244;-58
2021/01/14 12:22:57;;;;;;;;;;;10.80;99.90;;;;;;5118342;28;20002;-58
2021/01/14 12:25:23;;;;;;;;;;;10.80;99.90;;;;;;5117451;28;19911;-58
2021/01/14 12:27:48;;;;;;;;;;;10.70;99.90;;;;;;5117825;28;19907;-58
2021/01/14 12:30:14;;;;;;;;;;;10.60;99.90;;;;;;5118969;28;19995;-58
2021/01/14 12:32:40;;;;;;;;;;;10.70;99.90;;;;;;5101551;28;20305;-56
2021/01/14 12:35:06;;;;;;;;;;;10.70;99.90;;;;;;5120251;28;19914;-57
2021/01/14 12:37:35;;;;;;;;;;;10.80;99.90;;;;;;5112590;28;19930;-56
2021/01/14 12:40:03;;;;;;;;;;;10.80;99.90;;;;;;5109550;28;19950;-57
2021/01/14 12:42:28;;;;;;;;;;;10.90;99.90;;;;;;5094914;28;20226;-57
2021/01/14 12:44:54;;;;;;;;;;;10.90;99.90;;;;;;5102809;28;19916;-57
2021/01/14 12:47:19;;;;;;;;;;;10.90;99.90;;;;;;5104797;28;19914;-62
2021/01/14 12:49:45;;;;;;;;;;;10.80;99.90;;;;;;5117121;28;19916;-62
2021/01/14 12:52:10;;;;;;;;;;;10.80;99.90;;;;;;5110825;28;19907;-62
2021/01/14 12:54:36;;;;;;;;;;;10.80;99.90;;;;;;5104247;28;19911;-62
2021/01/14 12:57:01;;;;;;;;;;;10.80;99.90;;;;;;5119383;28;19960;-63
2021/01/14 12:59:27;;;;;;;;;;;10.70;99.90;;;;;;5119410;28;19945;-62
2021/01/14 13:01:52;;;;;;;;;;;10.70;99.90;;;;;;5100847;28;20274;-62
2021/01/14 13:04:18;;;;;;;;;;;10.70;99.90;;;;;;5101414;28;19914;-62
2021/01/14 13:06:44;;;;;;;;;;;10.70;99.90;;;;;;5136045;27;20286;-63
2021/01/14 13:09:10;;;;;;;;;;;10.70;99.90;;;;;;5127174;27;19992;-62
2021/01/14 13:11:38;;;;;;;;;;;10.80;99.90;;;;;;5119167;28;19903;-62
2021/01/14 13:14:04;;;;;;;;;;;10.80;99.90;;;;;;5118412;28;19908;-63
2021/01/14 13:16:37;;;;;;;;;;;10.80;99.90;;;;;;5119303;28;19907;-62
2021/01/14 13:19:12;;;;;;;;;;;10.90;99.90;;;;;;5109464;28;19955;-61
2021/01/14 13:21:39;;;;;;;;;;;10.90;99.90;;;;;;5110013;28;19938;-62
2021/01/14 13:24:06;;;;;;;;;;;10.90;99.90;;;;;;5103008;28;19908;-61
2021/01/14 13:26:32;;;;;;;;;;;11.00;99.90;;;;;;5106543;28;20188;-61
2021/01/14 13:28:58;;;;;;;;;;;11.00;99.90;;;;;;5107687;28;19919;-61
2021/01/14 13:31:23;;;;;;;;;;;11.10;99.90;;;;;;5118459;28;19914;-61
2021/01/14 13:33:49;;;;;;;;;;;11.10;99.90;;;;;;5118413;28;19908;-61
2021/01/14 13:36:14;;;;;;;;;;;11.20;99.90;;;;;;5118362;28;19908;-61
2021/01/14 13:38:41;;;;;;;;;;;11.10;99.90;;;;;;5118281;28;19992;-61
2021/01/14 13:41:07;;;;;;;;;;;11.10;99.90;;;;;;5117308;28;20198;-61
2021/01/14 13:43:32;;;;;;;;;;;11.20;99.90;;;;;;5117807;28;19920;-61
2021/01/14 13:45:59;;;;;;;;;;;11.10;99.90;;;;;;5118258;28;19912;-61
2021/01/14 13:48:24;;;;;;;;;;;11.10;99.90;;;;;;5117793;28;19951;-61
2021/01/14 13:50:50;;;;;;;;;;;11.10;99.90;;;;;;5117917;28;19919;-62
2021/01/14 13:53:15;;;;;;;;;;;11.00;99.90;;;;;;5111122;28;19957;-62
2021/01/14 13:55:41;;;;;;;;;;;10.90;99.90;;;;;;5100710;28;19908;-61
2021/01/14 13:58:11;;;;;;;;;;;10.90;99.90;;;;;;5118389;28;19914;-61
2021/01/14 14:00:41;;;;;;;;;;;11.00;99.90;;;;;;5098854;28;19919;-62
2021/01/14 14:03:06;;;;;;;;;;;10.90;99.90;;;;;;5103253;28;19904;-64
2021/01/14 14:05:32;;;;;;;;;;;10.80;99.90;;;;;;5106331;28;19916;-61
2021/01/14 14:07:57;;;;;;;;;;;10.60;99.90;;;;;;5108078;28;19915;-60
2021/01/14 14:10:23;;;;;;;;;;;10.50;99.90;;;;;;5112486;28;19912;-61
2021/01/14 14:12:48;;;;;;;;;;;10.50;99.90;;;;;;5097744;28;20199;-62
2021/01/14 14:15:14;;;;;;;;;;;10.30;99.90;;;;;;5107599;28;19908;-62
2021/01/14 14:17:39;;;;;;;;;;;10.20;99.90;;;;;;5084375;28;20309;-62
2021/01/14 14:20:05;;;;;;;;;;;10.20;99.90;;;;;;5109718;28;20429;-59
2021/01/14 14:22:31;;;;;;;;;;;10.10;99.90;;;;;;5103985;28;19916;-58
2021/01/14 14:24:57;;;;;;;;;;;10.00;99.90;;;;;;5106985;28;19957;-58